Terminal Aerodrome Forecast
Issued by NWS

Current Version | Previous Version | Text Only | Print | Product List | Glossary On
Versions: 1 2 3 4 5 6 7 8 9 10 11 12 13 14 15 16 17 18 19 20
294
FTAK31 PAJN 231723
TAFAWG
TAF
PAWG 231723Z 2318/2418 11006KT P6SM -RASN SCT010 OVC025
     FM232000 13009KT 6SM -RA BR SCT015 OVC025
     FM240500 11011G19KT 6SM -RASN BR SCT015 OVC020 WS020/15030KT
     FM241300 11009KT 6SM -SHRA BR SCT015 OVC025
      AMD LTD TO CLD VIS AND WIND 2406/2415=

USA.gov is the U.S. government's official web portal to all federal, state and local government web resources and services.